Time;durP1;ratioP1;P1;durP2;ratioP2;P2;SDS_P1;SDS_P2;PMS_P1;PMS_P2;Temp;Humidity;BMP_temperature;BMP_pressure;BME280_temperature;BME280_humidity;BME280_pressure;Samples;Min_cycle;Max_cycle;Signal;HPM_P1;HPM_P2
2022/05/05 00:00:39;;;;;;;;;21.33;19.33;;;;;17.47;100.00;101818.34;5076635;28;45209;-80
2022/05/05 00:03:04;;;;;;;;;18.33;18.33;;;;;17.42;100.00;101816.59;5076506;28;45498;-79
2022/05/05 00:05:30;;;;;;;;;16.75;16.75;;;;;17.36;100.00;101821.91;5076464;28;45381;-79
2022/05/05 00:07:55;;;;;;;;;17.00;17.00;;;;;17.28;100.00;101825.47;5076393;28;45262;-80
2022/05/05 00:15:49;;;;;;;;;20.00;19.25;;;;;17.11;100.00;101829.06;5076640;28;45279;-80
2022/05/05 00:18:14;;;;;;;;;21.50;20.75;;;;;17.07;100.00;101833.50;5079948;28;45984;-80
2022/05/05 00:20:40;;;;;;;;;18.75;18.00;;;;;17.03;100.00;101837.03;5079867;28;45330;-81
2022/05/05 00:23:05;;;;;;;;;23.00;19.75;;;;;16.99;100.00;101835.25;5079606;28;46364;-79
2022/05/05 00:25:30;;;;;;;;;23.00;20.75;;;;;16.94;100.00;101827.28;5079423;28;45304;-79
2022/05/05 00:27:56;;;;;;;;;18.00;18.00;;;;;16.90;100.00;101827.28;5079571;28;45242;-80
2022/05/05 00:30:21;;;;;;;;;17.00;15.33;;;;;16.85;100.00;101823.72;5079562;28;47265;-80
2022/05/05 00:32:47;;;;;;;;;20.50;16.25;;;;;16.79;100.00;101826.38;5040539;28;47593;-79
2022/05/05 00:35:12;;;;;;;;;16.00;14.00;;;;;16.72;100.00;101825.44;5074912;28;45509;-80
2022/05/05 00:37:37;;;;;;;;;18.33;14.00;;;;;16.69;100.00;101825.44;5079539;28;45376;-78
2022/05/05 00:40:04;;;;;;;;;17.00;15.00;;;;;16.63;100.00;101836.97;5078264;28;45328;-79
2022/05/05 00:42:29;;;;;;;;;15.00;12.67;;;;;16.58;100.00;101838.75;5079334;27;46852;-79
2022/05/05 00:44:55;;;;;;;;;13.00;12.67;;;;;16.54;100.00;101825.41;5079022;28;45303;-80
2022/05/05 00:47:21;;;;;;;;;16.00;14.00;;;;;16.54;100.00;101830.72;5079258;28;45386;-80
2022/05/05 00:49:47;;;;;;;;;13.33;10.33;;;;;16.52;100.00;101835.19;5079605;28;45308;-79
2022/05/05 00:52:12;;;;;;;;;10.33;10.33;;;;;16.47;100.00;101838.72;5079241;28;46059;-80
2022/05/05 00:54:39;;;;;;;;;10.33;10.33;;;;;16.42;100.00;101839.59;5078124;28;45260;-81
2022/05/05 00:57:05;;;;;;;;;11.00;11.00;;;;;16.37;100.00;101839.56;5079129;28;45157;-79
2022/05/05 00:59:30;;;;;;;;;14.33;9.00;;;;;16.34;100.00;101836.00;5079204;28;45379;-79
2022/05/05 01:01:56;;;;;;;;;10.33;10.33;;;;;16.30;100.00;101828.88;5060655;28;46656;-79
2022/05/05 01:04:21;;;;;;;;;11.00;11.00;;;;;16.26;100.00;101835.97;5078952;28;45196;-79
2022/05/05 01:06:46;;;;;;;;;11.00;9.67;;;;;16.22;100.00;101835.06;5077283;28;46948;-80
2022/05/05 01:09:12;;;;;;;;;12.67;12.67;;;;;16.20;100.00;101833.28;5079080;28;45493;-81
2022/05/05 01:11:37;;;;;;;;;11.33;11.33;;;;;16.18;100.00;101827.94;5078679;28;50223;-80
2022/05/05 01:14:03;;;;;;;;;14.33;11.67;;;;;16.17;100.00;101831.50;5078993;28;45276;-79
2022/05/05 01:16:29;;;;;;;;;12.33;10.00;;;;;16.18;100.00;101833.25;5060800;28;45302;-79
2022/05/05 01:18:55;;;;;;;;;15.00;11.00;;;;;16.16;100.00;101827.06;5061212;28;45452;-79
2022/05/05 01:21:21;;;;;;;;;18.50;14.00;;;;;16.16;100.00;101831.50;5077615;28;46321;-81
2022/05/05 01:23:46;;;;;;;;;10.67;10.67;;;;;16.13;100.00;101829.69;5078949;28;45276;-80
2022/05/05 01:28:57;;;;;;;;;11.00;10.00;;;;;16.11;100.00;101830.59;5077918;28;45621;-79
2022/05/05 01:31:22;;;;;;;;;9.00;9.00;;;;;16.12;100.00;101833.25;5060589;28;46920;-81
2022/05/05 01:33:48;;;;;;;;;9.33;9.33;;;;;16.08;100.00;101826.13;5078356;28;45222;-79
2022/05/05 01:36:13;;;;;;;;;11.00;10.33;;;;;16.05;100.00;101826.13;5077376;28;45352;-79
2022/05/05 01:38:44;;;;;;;;;11.33;11.33;;;;;16.04;100.00;101834.13;5078472;28;46412;-79
2022/05/05 01:41:13;;;;;;;;;11.33;11.33;;;;;16.01;100.00;101826.97;5078433;28;47388;-81
2022/05/05 01:43:41;;;;;;;;;10.00;10.00;;;;;15.99;100.00;101823.44;5078255;28;45295;-79
2022/05/05 01:46:07;;;;;;;;;12.67;11.00;;;;;15.99;100.00;101828.75;5078257;28;45245;-79
2022/05/05 01:48:33;;;;;;;;;12.67;10.00;;;;;15.97;100.00;101827.84;5078579;28;45567;-79
2022/05/05 01:50:59;;;;;;;;;17.00;12.00;;;;;15.92;100.00;101824.28;5078434;28;47520;-79
2022/05/05 01:53:24;;;;;;;;;14.00;12.67;;;;;15.90;100.00;101826.94;5077558;28;45237;-80
2022/05/05 01:55:50;;;;;;;;;10.33;10.33;;;;;15.87;100.00;101829.59;5078364;28;45439;-80
2022/05/05 01:58:16;;;;;;;;;11.33;11.33;;;;;15.86;100.00;101825.13;5060972;28;45389;-80
2022/05/05 02:00:41;;;;;;;;;15.00;12.33;;;;;15.84;100.00;101829.56;5078053;28;46329;-79
2022/05/05 02:03:12;;;;;;;;;12.67;9.67;;;;;15.84;100.00;101831.34;5060175;28;45303;-80
2022/05/05 02:05:42;;;;;;;;;16.00;15.00;;;;;15.81;100.00;101837.53;5078157;28;45400;-79
2022/05/05 02:08:08;;;;;;;;;13.33;10.00;;;;;15.78;100.00;101824.22;5078116;28;45568;-79
2022/05/05 02:10:34;;;;;;;;;10.67;10.00;;;;;15.76;100.00;101835.72;5059670;28;47788;-78
2022/05/05 02:13:00;;;;;;;;;12.33;11.00;;;;;15.70;100.00;101829.47;5059741;28;45323;-80
2022/05/05 02:15:27;;;;;;;;;11.00;10.00;;;;;15.68;100.00;101825.03;5078016;28;45142;-80
2022/05/05 02:17:52;;;;;;;;;10.67;9.67;;;;;15.65;100.00;101825.91;5077881;28;45600;-78
2022/05/05 02:20:18;;;;;;;;;9.33;9.33;;;;;15.66;100.00;101826.81;5077749;28;47467;-79
2022/05/05 02:22:44;;;;;;;;;14.33;14.00;;;;;15.65;100.00;101831.22;5077688;28;45300;-79
2022/05/05 02:25:09;;;;;;;;;12.67;10.00;;;;;15.64;100.00;101828.56;5078069;28;45304;-79
2022/05/05 02:28:04;;;;;;;;;10.33;9.00;;;;;15.65;100.00;101833.88;5059883;28;45543;-79
2022/05/05 02:30:30;;;;;;;;;16.00;12.33;;;;;15.64;100.00;101825.91;5046394;28;47461;-79
2022/05/05 02:32:56;;;;;;;;;16.00;13.67;;;;;15.63;100.00;101825.00;5077276;28;45359;-79
2022/05/05 02:35:22;;;;;;;;;11.33;10.00;;;;;15.61;100.00;101825.88;5077507;28;45327;-80
2022/05/05 02:40:32;;;;;;;;;16.25;13.00;;;;;15.57;100.00;101824.06;5077364;28;45364;-79
2022/05/05 02:42:58;;;;;;;;;14.50;13.50;;;;;15.54;100.00;101814.25;5077497;28;45213;-79
2022/05/05 02:45:24;;;;;;;;;16.33;12.33;;;;;15.54;100.00;101813.38;5077368;28;45430;-80
2022/05/05 02:47:52;;;;;;;;;12.00;12.00;;;;;15.51;100.00;101824.91;5059448;28;45197;-79
2022/05/05 02:50:18;;;;;;;;;13.33;12.00;;;;;15.50;100.00;101823.13;5041872;28;47654;-80
2022/05/05 02:52:43;;;;;;;;;15.67;14.67;;;;;15.47;100.00;101823.09;5077384;28;45422;-80
2022/05/05 02:55:09;;;;;;;;;13.33;11.00;;;;;15.44;100.00;101820.41;5058665;28;45485;-79
2022/05/05 02:57:34;;;;;;;;;15.25;12.25;;;;;15.42;100.00;101823.06;5059306;28;45300;-81
2022/05/05 03:00:00;;;;;;;;;15.00;14.00;;;;;15.38;100.00;101821.25;5077181;28;48194;-80
2022/05/05 03:02:26;;;;;;;;;18.00;14.25;;;;;15.38;100.00;101817.69;5077245;28;45345;-79
2022/05/05 03:04:51;;;;;;;;;15.50;14.00;;;;;15.36;100.00;101816.81;5058755;28;46646;-78
2022/05/05 03:07:17;;;;;;;;;18.00;15.67;;;;;15.34;100.00;101824.81;5077152;28;45339;-80
2022/05/05 03:09:42;;;;;;;;;13.33;13.00;;;;;15.36;100.00;101825.69;5066891;28;45349;-79
2022/05/05 03:12:09;;;;;;;;;12.33;12.33;;;;;15.34;100.00;101821.22;5076959;28;45297;-79
2022/05/05 03:14:34;;;;;;;;;14.00;12.33;;;;;15.33;100.00;101824.75;5077036;28;45227;-80
2022/05/05 03:17:00;;;;;;;;;17.25;13.25;;;;;15.29;100.00;101826.53;5077233;28;45205;-79
2022/05/05 03:19:26;;;;;;;;;16.00;14.67;;;;;15.27;100.00;101824.72;5075792;28;46432;-79
2022/05/05 03:21:52;;;;;;;;;15.67;14.00;;;;;15.28;100.00;101827.38;5077346;28;45305;-80
2022/05/05 03:24:17;;;;;;;;;19.33;15.67;;;;;15.27;100.00;101817.63;5076863;28;45392;-79
2022/05/05 03:26:43;;;;;;;;;16.33;14.67;;;;;15.25;100.00;101827.38;5076966;28;45646;-78
2022/05/05 03:29:08;;;;;;;;;13.00;13.00;;;;;15.22;100.00;101824.69;5076988;28;47768;-79
2022/05/05 03:31:34;;;;;;;;;19.00;16.25;;;;;15.20;100.00;101819.34;5076664;28;45291;-78
2022/05/05 03:33:59;;;;;;;;;15.25;12.00;;;;;15.22;100.00;101827.34;5076698;28;45441;-79
2022/05/05 03:36:24;;;;;;;;;19.75;17.00;;;;;15.20;100.00;101822.03;5077022;28;45490;-80
2022/05/05 03:38:51;;;;;;;;;14.00;12.75;;;;;15.20;100.00;101823.78;5076144;28;55015;-79
2022/05/05 03:41:16;;;;;;;;;17.00;15.75;;;;;15.20;100.00;101829.13;5076699;28;45342;-80
2022/05/05 03:43:41;;;;;;;;;15.75;13.00;;;;;15.19;100.00;101833.53;5058510;28;45438;-79
2022/05/05 03:46:07;;;;;;;;;18.00;16.25;;;;;15.22;100.00;101831.78;5076632;28;45536;-80
2022/05/05 03:48:33;;;;;;;;;14.50;14.00;;;;;15.25;100.00;101837.13;5076237;28;47399;-79
2022/05/05 03:50:58;;;;;;;;;19.50;15.25;;;;;15.27;100.00;101833.59;5077051;28;45211;-79
2022/05/05 03:53:23;;;;;;;;;16.00;16.00;;;;;15.29;100.00;101828.31;5079791;28;45451;-80
2022/05/05 03:55:49;;;;;;;;;20.25;15.75;;;;;15.30;100.00;101841.63;5080263;28;45519;-79
2022/05/05 03:58:14;;;;;;;;;15.25;14.50;;;;;15.30;100.00;101832.75;5079686;28;51264;-78
2022/05/05 04:00:39;;;;;;;;;16.25;16.00;;;;;15.30;100.00;101836.28;5080299;28;45320;-78
2022/05/05 04:05:49;;;;;;;;;17.67;17.33;;;;;15.30;100.00;101838.94;5079891;28;45272;-79
2022/05/05 04:08:14;;;;;;;;;15.67;14.00;;;;;15.31;100.00;101842.50;5079791;28;47505;-79
2022/05/05 04:10:40;;;;;;;;;15.75;13.00;;;;;15.31;100.00;101838.06;5079623;28;45318;-80
2022/05/05 04:13:05;;;;;;;;;13.25;13.00;;;;;15.35;100.00;101845.19;5061710;28;45512;-80
2022/05/05 04:15:33;;;;;;;;;16.50;15.00;;;;;15.36;100.00;101849.63;5061535;28;47022;-79
2022/05/05 04:17:59;;;;;;;;;16.25;12.75;;;;;15.36;100.00;101854.06;5079452;28;45814;-78
2022/05/05 04:20:25;;;;;;;;;18.25;16.00;;;;;15.36;100.00;101851.41;5079880;28;45335;-79
2022/05/05 04:22:50;;;;;;;;;17.25;15.00;;;;;15.39;100.00;101856.75;5061660;28;45471;-79
2022/05/05 04:25:16;;;;;;;;;17.25;16.25;;;;;15.41;100.00;101855.00;5079691;28;45552;-80
2022/05/05 04:27:42;;;;;;;;;17.33;15.00;;;;;15.40;100.00;101859.44;5079475;28;46411;-79
2022/05/05 04:30:08;;;;;;;;;15.25;12.25;;;;;15.42;100.00;101863.00;5079729;28;45300;-78
2022/05/05 04:32:33;;;;;;;;;15.75;15.00;;;;;15.39;100.00;101857.66;5079563;27;45454;-80
2022/05/05 04:34:59;;;;;;;;;14.75;14.50;;;;;15.38;100.00;101860.28;5079821;28;45423;-79
2022/05/05 04:37:24;;;;;;;;;12.75;12.75;;;;;15.38;100.00;101860.28;5078809;28;52535;-79
2022/05/05 04:39:49;;;;;;;;;15.67;14.00;;;;;15.36;100.00;101860.28;5078194;28;45244;-80
2022/05/05 04:42:15;;;;;;;;;20.00;14.75;;;;;15.35;100.00;101866.50;5079259;28;45292;-79
2022/05/05 04:44:41;;;;;;;;;21.00;16.75;;;;;15.33;100.00;101870.88;5061513;28;45332;-79
2022/05/05 04:47:06;;;;;;;;;18.00;16.25;;;;;15.26;100.00;101868.19;5060677;28;46407;-78
2022/05/05 04:49:32;;;;;;;;;19.00;16.00;;;;;15.21;100.00;101862.81;5061549;28;45262;-79
2022/05/05 04:51:57;;;;;;;;;20.25;16.25;;;;;15.17;100.00;101864.53;5079629;28;45624;-80
2022/05/05 04:54:23;;;;;;;;;16.50;16.25;;;;;15.16;100.00;101868.09;5062397;28;45380;-79
2022/05/05 04:56:48;;;;;;;;;21.00;17.75;;;;;15.18;100.00;101873.44;5083143;28;45874;-78
2022/05/05 04:59:14;;;;;;;;;19.50;14.50;;;;;15.19;100.00;101873.47;5079431;28;45529;-80
2022/05/05 05:01:39;;;;;;;;;19.50;19.50;;;;;15.22;100.00;101877.00;5061250;28;45375;-79
2022/05/05 05:04:06;;;;;;;;;23.50;18.75;;;;;15.18;100.00;101871.69;5077923;28;45323;-80
2022/05/05 05:06:32;;;;;;;;;19.50;17.00;;;;;15.19;100.00;101876.13;5192858;22;46588;-80
2022/05/05 05:08:57;;;;;;;;;21.75;19.00;;;;;15.17;100.00;101885.84;5081167;27;45305;-80
2022/05/05 05:11:23;;;;;;;;;22.75;20.50;;;;;15.14;100.00;101874.28;5078974;28;45414;-80
2022/05/05 05:13:49;;;;;;;;;22.50;19.75;;;;;15.13;100.00;101880.50;5077924;28;45312;-81
2022/05/05 05:16:14;;;;;;;;;20.25;17.50;;;;;15.14;100.00;101883.16;5078550;28;47408;-78
2022/05/05 05:18:39;;;;;;;;;22.75;22.00;;;;;15.18;100.00;101882.31;5078940;28;45453;-80
2022/05/05 05:21:05;;;;;;;;;27.25;20.75;;;;;15.18;100.00;101874.34;5078981;28;45234;-80
2022/05/05 05:23:30;;;;;;;;;21.75;18.25;;;;;15.20;100.00;101888.53;5060734;28;46176;-79
2022/05/05 05:25:55;;;;;;;;;22.25;18.25;;;;;15.23;100.00;101897.41;5060092;28;51247;-78
2022/05/05 05:28:21;;;;;;;;;28.00;22.75;;;;;15.20;100.00;101899.19;5078669;28;45359;-79
2022/05/05 05:30:46;;;;;;;;;31.50;26.50;;;;;15.18;100.00;101897.41;5060367;28;45387;-79
2022/05/05 05:33:12;;;;;;;;;22.25;22.25;;;;;15.13;100.00;101899.13;5078367;28;45541;-80
2022/05/05 05:35:38;;;;;;;;;21.00;20.00;;;;;15.09;100.00;101892.88;5060357;28;45328;-80
2022/05/05 05:38:04;;;;;;;;;32.00;25.00;;;;;15.05;100.00;101899.03;5078684;28;45159;-79
2022/05/05 05:40:30;;;;;;;;;23.25;20.50;;;;;15.07;100.00;101905.25;5078247;28;45280;-79
2022/05/05 05:42:55;;;;;;;;;30.75;24.75;;;;;15.09;100.00;101900.84;5078521;28;45539;-79
2022/05/05 05:45:21;;;;;;;;;32.67;24.33;;;;;15.13;100.00;101908.00;5078121;28;46759;-79
2022/05/05 05:47:46;;;;;;;;;25.75;25.75;;;;;15.20;100.00;101903.59;5077895;28;50313;-79
2022/05/05 05:50:11;;;;;;;;;26.50;25.75;;;;;15.23;100.00;101903.63;5078785;28;45188;-79
2022/05/05 05:52:37;;;;;;;;;28.25;25.00;;;;;15.27;100.00;101909.88;5060530;28;45538;-78
2022/05/05 05:55:02;;;;;;;;;35.00;21.75;;;;;15.29;100.00;101909.03;5077986;28;45691;-80
2022/05/05 05:57:28;;;;;;;;;25.75;22.00;;;;;15.34;100.00;101909.03;5078340;28;45373;-79
2022/05/05 05:59:54;;;;;;;;;32.25;29.25;;;;;15.42;100.00;101910.91;5078202;28;45330;-78
2022/05/05 06:05:04;;;;;;;;;28.25;24.00;;;;;15.51;100.00;101915.41;5078088;28;45523;-79
2022/05/05 06:07:30;;;;;;;;;30.00;26.25;;;;;15.55;100.00;101916.31;5077741;28;45338;-80
2022/05/05 06:09:55;;;;;;;;;27.75;26.25;;;;;15.60;100.00;101918.13;5077926;28;45988;-79
2022/05/05 06:12:20;;;;;;;;;28.75;22.50;;;;;15.65;100.00;101919.09;5077968;28;45286;-80
2022/05/05 06:14:46;;;;;;;;;26.75;24.50;;;;;15.70;100.00;101921.78;5075883;28;46538;-80
2022/05/05 06:17:11;;;;;;;;;24.50;22.25;;;;;15.67;100.00;101921.78;5077806;28;45302;-79
2022/05/05 06:19:37;;;;;;;;;29.50;25.75;;;;;15.67;100.00;101921.78;5078121;28;45364;-79
2022/05/05 06:22:02;;;;;;;;;25.75;23.00;;;;;15.70;100.00;101933.31;5077902;28;45176;-80
2022/05/05 06:24:28;;;;;;;;;33.25;30.00;;;;;15.74;100.00;101926.25;5077373;28;46306;-79
2022/05/05 06:26:53;;;;;;;;;24.50;23.50;;;;;15.78;100.00;101919.19;5077498;28;45297;-79
2022/05/05 06:29:18;;;;;;;;;25.25;24.25;;;;;15.83;100.00;101929.00;5059443;28;45292;-78
2022/05/05 06:31:44;;;;;;;;;33.50;28.00;;;;;15.90;100.00;101935.25;5077892;28;45162;-79
2022/05/05 06:34:10;;;;;;;;;28.25;22.00;;;;;15.90;100.00;101937.91;5077116;28;46512;-78
2022/05/05 06:36:36;;;;;;;;;27.50;24.50;;;;;15.89;100.00;101936.13;5077700;28;45304;-80
2022/05/05 06:39:01;;;;;;;;;28.00;24.75;;;;;15.95;100.00;101933.50;5077498;28;45526;-79
2022/05/05 06:41:28;;;;;;;;;31.25;25.00;;;;;15.98;100.00;101947.75;5077793;28;45485;-79
2022/05/05 06:43:54;;;;;;;;;28.50;25.25;;;;;15.98;100.00;101933.53;5077233;28;45742;-79
2022/05/05 06:46:20;;;;;;;;;40.00;29.25;;;;;16.00;100.00;101931.78;5077356;28;45356;-80
2022/05/05 06:48:45;;;;;;;;;33.00;29.00;;;;;16.04;100.00;101949.56;5077379;28;45462;-79
2022/05/05 06:51:11;;;;;;;;;32.75;28.75;;;;;16.08;100.00;101950.44;5077665;28;45301;-80
2022/05/05 06:53:36;;;;;;;;;26.75;24.75;;;;;16.11;100.00;101947.81;5058928;28;45723;-79
2022/05/05 06:56:02;;;;;;;;;25.50;24.25;;;;;16.11;100.00;101948.72;5076159;28;45426;-79
2022/05/05 06:58:27;;;;;;;;;26.50;21.50;;;;;16.09;100.00;101945.16;5077371;28;45236;-80
2022/05/05 07:03:36;;;;;;;;;29.00;23.50;;;;;16.15;100.00;101952.28;5061794;28;45374;-80
2022/05/05 07:06:02;;;;;;;;;33.50;28.50;;;;;16.17;100.00;101953.19;5058585;28;46441;-79
2022/05/05 07:10:52;;;;;;;;;28.25;23.75;;;;;16.23;100.00;101951.44;5076810;28;45135;-79
2022/05/05 07:11:13;;;;;;;;;35.25;31.00;;;;;16.34;100.00;101958.59;5077223;28;45535;-79
2022/05/05 07:13:39;;;;;;;;;31.50;27.75;;;;;16.39;100.00;101955.06;5077043;28;46520;-79
2022/05/05 07:16:04;;;;;;;;;34.50;29.25;;;;;16.45;100.00;101951.53;5077042;28;45197;-79
2022/05/05 07:18:30;;;;;;;;;30.75;29.50;;;;;16.47;100.00;101960.47;5077217;28;45221;-78
2022/05/05 07:20:55;;;;;;;;;27.50;27.00;;;;;16.45;100.00;101955.09;5077192;28;45383;-80
2022/05/05 07:23:20;;;;;;;;;25.50;22.75;;;;;16.48;100.00;101959.56;5076701;28;53817;-79
2022/05/05 07:25:46;;;;;;;;;36.00;31.50;;;;;16.53;100.00;101956.94;5076872;28;45237;-79
2022/05/05 07:28:13;;;;;;;;;32.50;28.75;;;;;16.61;100.00;101958.72;5080806;28;45185;-80
2022/05/05 07:30:39;;;;;;;;;31.00;27.00;;;;;16.67;100.00;101957.84;5080565;28;45495;-79
2022/05/05 07:33:05;;;;;;;;;32.25;26.75;;;;;16.74;100.00;101957.06;5080222;27;45602;-79
2022/05/05 07:35:31;;;;;;;;;27.75;24.50;;;;;16.85;100.00;101957.09;5080266;28;45407;-79
2022/05/05 07:37:56;;;;;;;;;24.00;24.00;;;;;16.88;100.00;101967.75;5080740;28;45217;-80
2022/05/05 07:40:21;;;;;;;;;29.25;24.50;;;;;16.89;100.00;101964.22;5080130;28;47870;-79
2022/05/05 07:42:47;;;;;;;;;31.00;27.25;;;;;16.91;100.00;101967.78;5080084;28;46476;-78
2022/05/05 07:45:12;;;;;;;;;41.50;34.00;;;;;16.91;100.00;101958.00;5080150;28;45276;-80
2022/05/05 07:47:38;;;;;;;;;27.50;26.50;;;;;16.90;100.00;101960.66;5080179;28;45323;-79
2022/05/05 07:50:04;;;;;;;;;31.50;26.25;;;;;16.95;100.00;101970.47;5080496;28;45210;-79
2022/05/05 07:52:29;;;;;;;;;29.75;23.25;;;;;16.96;100.00;101966.91;5080400;28;46696;-79
2022/05/05 07:54:55;;;;;;;;;28.00;25.50;;;;;16.97;100.00;101975.78;5079695;28;45376;-79
2022/05/05 07:57:20;;;;;;;;;32.00;28.75;;;;;16.94;100.00;101970.47;5080210;28;46097;-79
2022/05/05 07:59:46;;;;;;;;;31.25;30.50;;;;;16.89;100.00;101972.22;5080540;28;45426;-79
2022/05/05 08:02:14;;;;;;;;;33.00;26.25;;;;;16.86;100.00;101966.88;5079997;28;46813;-80
2022/05/05 08:04:40;;;;;;;;;31.75;27.00;;;;;16.85;100.00;101973.09;5061835;28;45672;-80
2022/05/05 08:07:06;;;;;;;;;28.50;26.25;;;;;16.85;100.00;101981.09;5061871;28;45506;-79
2022/05/05 08:09:31;;;;;;;;;27.75;25.75;;;;;16.85;100.00;101978.44;5079914;28;45296;-79
2022/05/05 08:11:59;;;;;;;;;28.25;25.50;;;;;16.89;100.00;101974.91;5079859;28;45541;-79
2022/05/05 08:14:25;;;;;;;;;27.50;23.75;;;;;16.91;100.00;101978.44;5079740;28;45446;-80
2022/05/05 08:16:51;;;;;;;;;26.25;22.50;;;;;16.94;100.00;101979.34;5061886;28;45235;-80
2022/05/05 08:19:17;;;;;;;;;26.50;22.25;;;;;16.99;100.00;101976.69;5079895;28;45575;-79
2022/05/05 08:21:42;;;;;;;;;26.25;23.25;;;;;17.01;100.00;101980.25;5079810;28;47480;-79
2022/05/05 08:29:35;;;;;;;;;31.75;29.50;;;;;17.29;100.00;101987.44;5067237;28;45285;-80
2022/05/05 08:32:01;;;;;;;;;28.00;23.67;;;;;17.43;100.00;101981.22;5078939;27;57733;-79
2022/05/05 08:34:26;;;;;;;;;29.33;25.00;;;;;17.58;100.00;101986.59;5061269;28;45413;-79
2022/05/05 08:36:51;;;;;;;;;27.50;24.00;;;;;17.70;100.00;101996.38;5079296;28;45254;-79
2022/05/05 08:39:17;;;;;;;;;24.00;22.00;;;;;17.80;100.00;101999.09;5079745;28;45385;-80
2022/05/05 08:41:43;;;;;;;;;25.67;22.67;;;;;17.91;100.00;101985.72;5082687;27;46344;-79
2022/05/05 08:44:08;;;;;;;;;26.00;26.00;;;;;18.03;100.00;101982.13;5061239;28;45380;-80
2022/05/05 08:46:34;;;;;;;;;28.25;27.00;;;;;18.15;100.00;101989.25;5078989;28;45483;-81
2022/05/05 08:49:05;;;;;;;;;22.67;20.33;;;;;18.22;100.00;101986.56;5078284;28;45249;-79
2022/05/05 08:51:38;;;;;;;;;22.33;20.33;;;;;18.26;100.00;101985.66;5079245;28;46580;-80
2022/05/05 08:54:06;;;;;;;;;21.00;19.67;;;;;18.31;100.00;101988.31;5071656;28;45253;-79
2022/05/05 08:56:31;;;;;;;;;22.00;19.00;;;;;18.36;100.00;101986.53;5073910;28;45238;-80
2022/05/05 08:58:57;;;;;;;;;21.00;18.33;;;;;18.39;100.00;101999.00;5079096;28;45619;-80
2022/05/05 09:01:22;;;;;;;;;18.33;18.33;;;;;18.40;100.00;101992.75;5079012;28;45993;-78
2022/05/05 09:03:47;;;;;;;;;22.00;18.33;;;;;18.37;100.00;101999.00;5079095;28;45336;-80
2022/05/05 09:06:13;;;;;;;;;24.00;21.33;;;;;18.36;100.00;101999.00;5078826;28;45339;-78
2022/05/05 09:08:38;;;;;;;;;25.33;24.00;;;;;18.29;100.00;101998.13;5083938;27;45450;-78
2022/05/05 09:11:06;;;;;;;;;20.33;17.33;;;;;18.25;100.00;101997.25;5078690;28;45623;-80
2022/05/05 09:13:36;;;;;;;;;17.00;17.00;;;;;18.25;100.00;102002.59;5079137;28;45467;-80
2022/05/05 09:16:04;;;;;;;;;14.33;14.33;;;;;18.29;100.00;102004.38;5079049;28;45219;-80
2022/05/05 09:18:32;;;;;;;;;20.00;17.00;;;;;18.29;100.00;101999.03;5079245;28;45269;-79
2022/05/05 09:21:05;;;;;;;;;19.00;15.00;;;;;18.31;100.00;101994.56;5078569;28;45886;-80
2022/05/05 09:26:28;;;;;;;;;11.00;10.00;;;;;18.49;100.00;101998.97;5078967;28;45537;-79
2022/05/05 09:28:54;;;;;;;;;11.67;11.67;;;;;18.67;100.00;101992.66;5077525;28;45236;-79
2022/05/05 09:31:21;;;;;;;;;11.67;10.33;;;;;18.82;100.00;101987.28;5078521;28;46294;-80
2022/05/05 09:33:47;;;;;;;;;9.00;9.00;;;;;18.89;100.00;101987.25;5078277;28;45209;-79
2022/05/05 09:36:18;;;;;;;;;13.00;10.33;;;;;18.88;100.00;101990.84;5078743;28;45488;-81
2022/05/05 09:38:56;;;;;;;;;13.67;9.33;;;;;18.80;100.00;102004.22;5060269;28;45597;-80
2022/05/05 09:41:42;;;;;;;;;10.67;10.67;;;;;18.72;100.00;101998.94;5078258;28;47108;-79
2022/05/05 09:44:20;;;;;;;;;11.00;10.33;;;;;18.66;100.00;102006.06;5060357;28;45389;-79
2022/05/05 09:46:46;;;;;;;;;9.67;9.67;;;;;18.54;100.00;102004.31;5078319;28;45512;-79
2022/05/05 09:49:15;;;;;;;;;9.33;8.33;;;;;18.47;100.00;102010.56;5077686;28;45305;-79
2022/05/05 09:51:46;;;;;;;;;9.00;7.33;;;;;18.42;99.56;102002.53;5078225;28;47558;-79
2022/05/05 09:59:49;;;;;;;;;8.33;8.33;;;;;18.59;98.51;101991.81;5078295;28;45431;-79
2022/05/05 10:04:00;;;;;;;;;8.33;8.00;;;;;18.74;97.31;101991.78;5078233;28;47566;-80
2022/05/05 10:05:05;;;;;;;;;9.00;8.67;;;;;18.96;97.86;101984.56;5077900;28;45475;-80
2022/05/05 10:07:31;;;;;;;;;12.33;9.67;;;;;19.07;96.40;101996.09;5077916;28;45204;-79
2022/05/05 10:09:57;;;;;;;;;8.67;8.33;;;;;19.10;95.23;101995.16;5077959;28;45645;-80
2022/05/05 10:12:23;;;;;;;;;9.67;8.67;;;;;19.04;93.47;101987.19;5060034;28;47320;-78
2022/05/05 10:14:49;;;;;;;;;8.00;8.00;;;;;18.99;94.90;101997.03;5059650;28;48290;-80
2022/05/05 10:17:14;;;;;;;;;9.33;8.67;;;;;18.96;95.05;101997.03;5078124;28;45317;-79
2022/05/05 10:19:40;;;;;;;;;8.00;8.00;;;;;18.91;95.09;102005.09;5078046;28;45288;-79
2022/05/05 10:22:13;;;;;;;;;7.33;5.33;;;;;18.88;94.89;102006.88;5077579;28;53518;-79
2022/05/05 10:24:43;;;;;;;;;9.00;9.00;;;;;18.85;94.78;102002.41;5059611;28;45343;-79
2022/05/05 10:27:09;;;;;;;;;10.00;8.67;;;;;18.80;93.61;102005.16;5077942;28;45238;-80
2022/05/05 10:29:41;;;;;;;;;12.67;9.67;;;;;18.77;94.73;101999.78;5077996;28;45212;-80
2022/05/05 10:32:13;;;;;;;;;12.67;7.67;;;;;18.78;93.78;102001.56;5077366;28;47387;-79
2022/05/05 10:34:45;;;;;;;;;13.00;7.67;;;;;18.88;93.85;102001.53;5068269;28;45325;-79
2022/05/05 10:37:11;;;;;;;;;8.00;8.00;;;;;19.03;93.89;101998.78;5077615;28;45403;-79
2022/05/05 10:39:50;;;;;;;;;9.00;9.00;;;;;19.16;90.85;101995.13;5059806;28;45250;-79
2022/05/05 10:42:45;;;;;;;;;7.33;7.33;;;;;19.24;89.51;101989.75;5073693;28;46521;-80
2022/05/05 10:45:22;;;;;;;;;10.33;9.00;;;;;19.27;90.82;101995.06;5059564;28;45355;-79
2022/05/05 10:47:58;;;;;;;;;8.33;8.33;;;;;19.37;89.55;101986.06;5077293;28;45138;-81
2022/05/05 10:50:54;;;;;;;;;7.00;5.33;;;;;19.60;87.82;101977.88;5077550;28;45560;-79
2022/05/05 10:53:40;;;;;;;;;6.00;5.00;;;;;19.92;88.13;101974.97;5077206;28;46577;-80
2022/05/05 10:56:25;;;;;;;;;10.00;6.67;;;;;20.04;86.44;101979.31;5059206;28;46178;-79
2022/05/05 10:59:09;;;;;;;;;6.67;6.67;;;;;19.94;83.98;101986.53;5077459;28;45518;-80
2022/05/05 11:01:44;;;;;;;;;5.00;5.00;;;;;19.79;85.16;101984.00;5077611;28;45183;-79
2022/05/05 11:04:15;;;;;;;;;6.67;6.00;;;;;19.67;86.31;101987.69;5077215;28;46877;-79
2022/05/05 11:06:42;;;;;;;;;5.00;4.33;;;;;19.59;87.25;101998.44;5076665;28;45470;-80
2022/05/05 11:09:08;;;;;;;;;6.00;4.00;;;;;19.57;85.56;101993.97;5077136;28;45181;-80
2022/05/05 11:11:42;;;;;;;;;8.67;5.33;;;;;19.61;86.09;101983.25;5059053;28;45552;-80
2022/05/05 11:23:01;;;;;;;;;6.00;5.00;;;;;19.92;83.86;101987.44;5077460;28;45379;-79
2022/05/05 11:25:27;;;;;;;;;5.33;5.33;;;;;19.86;83.22;101981.22;5058916;28;47468;-80
2022/05/05 11:27:56;;;;;;;;;5.67;5.00;;;;;19.82;83.03;101981.31;5076932;28;45383;-80
2022/05/05 11:30:22;;;;;;;;;7.00;4.00;;;;;19.87;83.71;101982.16;5077341;28;45325;-79
2022/05/05 11:32:47;;;;;;;;;6.33;6.33;;;;;19.97;82.28;101978.44;5076940;27;45264;-79
2022/05/05 11:35:20;;;;;;;;;5.67;5.00;;;;;20.00;80.92;101983.78;5076620;28;47287;-80
2022/05/05 11:37:45;;;;;;;;;4.67;4.67;;;;;19.93;80.18;101971.38;5076741;28;45280;-79
2022/05/05 11:40:12;;;;;;;;;10.00;4.33;;;;;19.92;80.61;101982.09;5076681;28;45974;-79
2022/05/05 11:45:29;;;;;;;;;7.67;4.67;;;;;20.04;80.80;101984.66;5076326;28;45496;-80
2022/05/05 11:47:55;;;;;;;;;5.00;4.00;;;;;20.08;79.75;101981.94;5041520;28;45454;-79